createdAt,value
2019-01-23T00:01:40.905Z,57.30
2019-01-23T00:04:10.024Z,57.40
2019-01-23T00:06:39.433Z,57.30
2019-01-23T00:09:28.268Z,57.30
2019-01-23T00:11:57.677Z,57.40
2019-01-23T00:14:27.848Z,57.30
2019-01-23T00:17:02.482Z,57.50
2019-01-23T00:19:49.580Z,57.50
2019-01-23T00:22:19.178Z,57.50
2019-01-23T00:25:27.733Z,57.40
2019-01-23T00:27:58.706Z,57.50
2019-01-23T00:30:28.890Z,57.50
2019-01-23T00:32:57.905Z,57.50
2019-01-23T00:35:27.461Z,57.40
2019-01-23T00:37:56.373Z,57.50
2019-01-23T00:40:25.611Z,57.50
2019-01-23T00:42:54.581Z,57.50
2019-01-23T00:45:45.102Z,57.50
2019-01-23T00:48:23.933Z,57.70
2019-01-23T00:50:56.319Z,57.60
2019-01-23T00:53:31.109Z,57.50
2019-01-23T00:56:09.459Z,57.70
2019-01-23T00:59:48.886Z,57.70
2019-01-23T01:02:23.790Z,57.90
2019-01-23T01:04:54.641Z,57.80
2019-01-23T01:07:26.086Z,57.70
2019-01-23T01:10:10.090Z,57.70
2019-01-23T01:12:51.388Z,57.80
2019-01-23T01:15:23.569Z,57.70
2019-01-23T01:18:03.270Z,57.60
2019-01-23T01:20:41.230Z,57.70
2019-01-23T01:26:50.599Z,57.60
2019-01-23T01:29:23.130Z,57.70
2019-01-23T01:31:56.148Z,57.70
2019-01-23T01:34:29.605Z,57.70
2019-01-23T01:37:01.945Z,57.70
2019-01-23T01:39:31.635Z,57.70
2019-01-23T01:42:08.550Z,57.70
2019-01-23T01:44:39.087Z,57.70
2019-01-23T01:47:10.441Z,57.70
2019-01-23T01:53:15.037Z,57.80
2019-01-23T01:55:48.267Z,57.70
2019-01-23T01:58:19.060Z,57.60
2019-01-23T02:00:49.288Z,57.60
2019-01-23T02:03:22.081Z,57.70
2019-01-23T02:05:55.383Z,57.70
2019-01-23T02:08:43.677Z,57.60
2019-01-23T02:11:17.562Z,57.60
2019-01-23T02:13:47.107Z,57.40
2019-01-23T02:16:18.918Z,57.40
2019-01-23T02:18:53.650Z,57.30
2019-01-23T02:21:24.497Z,57.40
2019-01-23T02:23:58.570Z,57.40
2019-01-23T02:26:31.547Z,57.40
2019-01-23T02:29:09.326Z,57.40
2019-01-23T02:31:35.960Z,57.30
2019-01-23T02:34:07.076Z,57.20
2019-01-23T02:36:46.157Z,57.70
2019-01-23T02:39:33.961Z,57.30
2019-01-23T02:42:11.367Z,57.20
2019-01-23T02:44:40.988Z,56.90
2019-01-23T02:47:15.261Z,56.90
2019-01-23T02:49:45.194Z,56.90
2019-01-23T02:52:16.531Z,57.00
2019-01-23T02:55:11.241Z,56.80
2019-01-23T02:57:49.878Z,57.10
2019-01-23T03:00:21.996Z,56.90
2019-01-23T03:02:53.983Z,57.00
2019-01-23T03:05:25.634Z,57.20
2019-01-23T03:07:56.066Z,57.00
2019-01-23T03:10:47.046Z,57.20
2019-01-23T03:13:25.753Z,57.10
2019-01-23T03:16:21.680Z,56.90
2019-01-23T03:19:20.893Z,57.30
2019-01-23T03:22:12.278Z,57.30
2019-01-23T03:24:50.066Z,57.10
2019-01-23T03:27:21.812Z,57.00
2019-01-23T03:30:29.783Z,57.10
2019-01-23T03:33:25.800Z,57.30
2019-01-23T03:36:20.166Z,56.90
2019-01-23T03:39:22.924Z,57.20
2019-01-23T03:41:59.378Z,57.40
2019-01-23T03:44:36.375Z,57.20
2019-01-23T03:47:20.596Z,57.30
2019-01-23T03:49:51.157Z,57.30
2019-01-23T03:52:36.218Z,57.40
2019-01-23T03:55:14.408Z,57.50
2019-01-23T03:57:45.005Z,57.40
2019-01-23T04:00:21.229Z,57.60
2019-01-23T04:02:58.458Z,57.70
2019-01-23T04:05:53.728Z,57.70
2019-01-23T04:08:35.918Z,57.90
2019-01-23T04:11:12.628Z,58.10
2019-01-23T04:13:48.334Z,58.00
2019-01-23T04:16:25.363Z,58.00
2019-01-23T04:19:06.783Z,58.00
2019-01-23T04:22:00.898Z,58.20
2019-01-23T04:24:33.663Z,58.10
2019-01-23T04:27:04.060Z,58.10
2019-01-23T04:29:39.574Z,58.10
2019-01-23T04:32:07.575Z,58.30
2019-01-23T04:34:37.583Z,58.30
2019-01-23T04:37:07.741Z,58.40
2019-01-23T04:39:56.875Z,58.40
2019-01-23T04:46:16.045Z,58.30
2019-01-23T04:49:31.791Z,58.30
2019-01-23T04:52:28.902Z,58.50
2019-01-23T04:55:35.829Z,58.30
2019-01-23T05:01:37.230Z,58.40
2019-01-23T05:04:51.929Z,58.40
2019-01-23T05:07:48.842Z,58.40
2019-01-23T05:10:52.321Z,58.30
2019-01-23T05:13:40.513Z,58.90
2019-01-23T05:16:26.892Z,58.40
2019-01-23T05:19:06.264Z,58.40
2019-01-23T05:21:39.081Z,58.30
2019-01-23T05:24:29.041Z,58.20
2019-01-23T05:27:36.355Z,58.50
2019-01-23T05:30:25.562Z,58.40
2019-01-23T05:32:57.654Z,58.40
2019-01-23T05:35:27.805Z,58.20
2019-01-23T05:38:13.310Z,58.30
2019-01-23T05:41:00.144Z,58.20
2019-01-23T05:43:34.746Z,58.30
2019-01-23T05:46:28.686Z,58.20
2019-01-23T05:50:03.469Z,58.40
2019-01-23T05:53:05.097Z,58.40
2019-01-23T05:55:47.513Z,58.30
2019-01-23T05:58:26.512Z,58.60
2019-01-23T06:01:01.516Z,58.40
2019-01-23T06:07:38.457Z,58.40
2019-01-23T06:10:56.181Z,58.60
2019-01-23T06:17:41.740Z,58.50
2019-01-23T06:21:20.935Z,58.70
2019-01-23T06:24:39.211Z,58.80
2019-01-23T06:27:16.490Z,58.70
2019-01-23T06:36:41.259Z,58.70
2019-01-23T06:39:31.393Z,58.70
2019-01-23T06:42:01.988Z,58.80
2019-01-23T06:44:31.642Z,58.80
2019-01-23T06:47:13.606Z,59.10
2019-01-23T06:50:03.429Z,59.10
2019-01-23T06:52:33.963Z,59.20
2019-01-23T06:55:08.363Z,59.10
2019-01-23T06:57:41.623Z,59.40
2019-01-23T07:00:17.171Z,59.40
2019-01-23T07:02:59.975Z,59.60
2019-01-23T07:05:39.286Z,59.50
2019-01-23T07:11:53.058Z,59.80
2019-01-23T07:17:49.725Z,59.70
2019-01-23T07:21:09.658Z,60.00
2019-01-23T07:23:39.586Z,59.90
2019-01-23T07:26:08.657Z,59.90
2019-01-23T07:28:49.345Z,59.80
2019-01-23T07:31:17.918Z,59.90
2019-01-23T07:33:48.975Z,59.80
2019-01-23T07:36:23.493Z,59.70
2019-01-23T07:39:17.071Z,59.70
2019-01-23T07:41:53.229Z,59.70
2019-01-23T07:44:23.087Z,59.70
2019-01-23T07:46:52.036Z,59.60
2019-01-23T07:49:39.825Z,59.50
2019-01-23T07:52:38.095Z,59.60
2019-01-23T07:55:10.479Z,59.60
2019-01-23T07:57:42.229Z,59.60
2019-01-23T08:00:15.070Z,59.40
2019-01-23T08:02:44.419Z,59.30
2019-01-23T08:05:19.419Z,59.30
2019-01-23T08:07:44.741Z,59.20
2019-01-23T08:10:18.900Z,59.10
2019-01-23T08:12:47.999Z,59.10
2019-01-23T08:15:25.060Z,59.00
2019-01-23T08:17:54.185Z,59.00
2019-01-23T08:20:24.077Z,58.80
2019-01-23T08:22:53.497Z,58.80
2019-01-23T08:25:22.449Z,58.60
2019-01-23T08:27:51.895Z,58.60
2019-01-23T08:30:21.696Z,58.40
2019-01-23T08:32:50.894Z,58.40
2019-01-23T08:35:21.958Z,58.10
2019-01-23T08:37:51.322Z,58.10
2019-01-23T08:40:21.709Z,57.80
2019-01-23T08:42:55.631Z,57.80
2019-01-23T08:45:26.422Z,57.60
2019-01-23T08:47:58.157Z,57.50
2019-01-23T08:50:31.317Z,57.30
2019-01-23T08:53:00.385Z,57.30
2019-01-23T08:55:29.683Z,56.90
2019-01-23T08:57:59.189Z,56.60
2019-01-23T09:00:28.634Z,56.40
2019-01-23T09:02:58.129Z,56.10
2019-01-23T09:05:27.464Z,55.90
2019-01-23T09:07:56.482Z,55.80
2019-01-23T09:10:26.089Z,55.80
2019-01-23T09:12:55.168Z,55.70
2019-01-23T09:15:25.289Z,55.60
2019-01-23T09:17:54.402Z,55.60
2019-01-23T09:20:23.561Z,55.50
2019-01-23T09:22:53.562Z,55.30
2019-01-23T09:25:25.286Z,55.40
2019-01-23T09:27:54.714Z,55.40
2019-01-23T09:30:29.170Z,55.30
2019-01-23T09:33:20.922Z,55.30
2019-01-23T11:01:28.629Z,53.90
2019-01-23T11:03:59.264Z,53.90
2019-01-23T11:06:28.928Z,53.80
2019-01-23T11:08:59.750Z,53.90
2019-01-23T11:11:29.319Z,53.80
2019-01-23T11:14:05.921Z,53.60
2019-01-23T11:16:45.439Z,53.50
2019-01-23T11:19:14.714Z,53.20
2019-01-23T11:21:44.459Z,53.00
2019-01-23T11:24:14.076Z,52.80
2019-01-23T11:26:47.062Z,52.60
2019-01-23T11:29:21.146Z,52.40
2019-01-23T11:31:50.650Z,52.40
2019-01-23T11:34:21.375Z,52.10
2019-01-23T11:36:50.352Z,51.80
2019-01-23T11:39:19.432Z,51.80
2019-01-23T11:41:51.203Z,51.80
2019-01-23T11:44:23.102Z,51.80
2019-01-23T11:46:54.221Z,51.80
2019-01-23T11:49:23.844Z,51.90
2019-01-23T11:51:52.872Z,51.80
2019-01-23T11:54:22.240Z,51.80
2019-01-23T11:56:52.359Z,51.50
2019-01-23T11:59:26.685Z,51.50
2019-01-23T12:01:56.679Z,51.30
2019-01-23T12:04:32.198Z,51.20
2019-01-23T12:07:01.783Z,51.10
2019-01-23T12:09:35.774Z,51.00
2019-01-23T12:12:05.311Z,51.10
2019-01-23T12:14:35.235Z,50.80
2019-01-23T12:17:14.745Z,51.00
2019-01-23T12:19:44.166Z,51.10
2019-01-23T12:22:17.851Z,50.90
2019-01-23T12:24:47.589Z,50.60
2019-01-23T12:27:19.198Z,50.30
2019-01-23T12:29:49.003Z,50.80
2019-01-23T12:32:22.477Z,50.10
2019-01-23T12:34:53.735Z,49.90
2019-01-23T12:37:25.581Z,49.70
2019-01-23T12:39:57.282Z,49.60
2019-01-23T12:42:30.670Z,49.50
2019-01-23T12:45:01.882Z,49.30
2019-01-23T12:47:35.257Z,49.40
2019-01-23T12:50:06.142Z,49.60
2019-01-23T12:52:36.179Z,49.70
2019-01-23T12:55:08.783Z,49.40
2019-01-23T12:57:37.945Z,49.20
2019-01-23T13:03:03.298Z,49.10
2019-01-23T13:05:33.851Z,49.20
2019-01-23T13:08:04.872Z,48.90
2019-01-23T13:10:36.739Z,48.70
2019-01-23T13:13:09.192Z,48.70
2019-01-23T13:15:38.794Z,48.60
2019-01-23T13:18:11.589Z,48.80
2019-01-23T13:20:41.642Z,48.80
2019-01-23T13:23:19.624Z,48.90
2019-01-23T13:25:45.030Z,49.00
2019-01-23T13:28:14.130Z,48.80
2019-01-23T13:30:50.027Z,48.80
2019-01-23T13:33:19.367Z,48.80
2019-01-23T13:35:57.904Z,49.00
2019-01-23T13:38:32.764Z,49.10
2019-01-23T13:41:06.227Z,49.10
2019-01-23T13:43:36.877Z,49.20
2019-01-23T13:46:06.337Z,49.30
2019-01-23T13:48:35.858Z,49.60
2019-01-23T13:51:07.336Z,49.60
2019-01-23T13:53:37.037Z,49.60
2019-01-23T13:56:08.948Z,49.70
2019-01-23T13:58:41.886Z,49.70
2019-01-23T14:01:10.277Z,49.80
2019-01-23T14:03:39.718Z,50.00
2019-01-23T14:06:09.411Z,49.90
2019-01-23T14:08:41.060Z,49.90
2019-01-23T14:11:10.113Z,50.00
2019-01-23T14:13:39.939Z,50.10
2019-01-23T14:16:08.922Z,50.20
2019-01-23T14:18:37.934Z,50.40
2019-01-23T14:21:07.105Z,50.50
2019-01-23T14:23:40.420Z,50.50
2019-01-23T14:26:09.505Z,50.70
2019-01-23T14:28:38.690Z,50.90
2019-01-23T14:31:09.568Z,50.80
2019-01-23T14:33:38.566Z,50.80
2019-01-23T14:36:09.692Z,50.90
2019-01-23T14:38:41.634Z,50.90
2019-01-23T14:41:10.660Z,51.10
2019-01-23T14:43:39.954Z,51.20
2019-01-23T14:46:09.069Z,51.30
2019-01-23T14:48:38.301Z,51.50
2019-01-23T14:51:07.832Z,51.50
2019-01-23T14:53:36.680Z,51.50
2019-01-23T14:56:05.708Z,51.70
2019-01-23T14:58:34.866Z,51.60
2019-01-23T15:01:04.150Z,51.80
2019-01-23T15:03:33.146Z,51.90
2019-01-23T15:06:03.830Z,51.80
2019-01-23T15:08:32.933Z,51.90
2019-01-23T15:11:02.173Z,52.00
2019-01-23T15:13:32.756Z,52.10
2019-01-23T15:16:01.826Z,52.20
2019-01-23T15:18:30.789Z,52.20
2019-01-23T15:20:59.613Z,52.30
2019-01-23T15:23:28.649Z,52.30
2019-01-23T15:25:59.266Z,52.40
2019-01-23T15:28:29.201Z,52.40
2019-01-23T15:30:58.333Z,52.30
2019-01-23T15:33:29.572Z,52.40
2019-01-23T15:35:58.874Z,52.40
2019-01-23T15:38:29.093Z,52.40
2019-01-23T15:40:58.060Z,52.50
2019-01-23T15:43:26.973Z,52.40
2019-01-23T15:45:57.201Z,52.30
2019-01-23T15:48:28.442Z,52.50
2019-01-23T15:50:57.334Z,52.40
2019-01-23T15:53:26.292Z,52.50
2019-01-23T15:55:55.235Z,52.50
2019-01-23T15:58:25.769Z,52.60
2019-01-23T16:00:55.014Z,52.70
2019-01-23T16:03:24.868Z,52.60
2019-01-23T16:05:54.748Z,52.70
2019-01-23T16:08:23.766Z,52.90
2019-01-23T16:10:52.750Z,52.90
2019-01-23T16:13:27.613Z,52.80
2019-01-23T16:15:56.689Z,53.00
2019-01-23T16:18:26.752Z,52.90
2019-01-23T16:20:56.167Z,53.00
2019-01-23T16:23:25.407Z,53.10
2019-01-23T16:25:57.637Z,53.10
2019-01-23T16:28:27.027Z,53.20
2019-01-23T16:30:58.122Z,53.20
2019-01-23T16:33:27.113Z,53.30
2019-01-23T16:35:56.186Z,53.30
2019-01-23T16:38:25.893Z,53.40
2019-01-23T16:40:54.859Z,53.50
2019-01-23T16:43:23.981Z,53.50
2019-01-23T16:45:57.552Z,53.60
2019-01-23T16:48:26.622Z,53.70
2019-01-23T16:50:57.611Z,53.70
2019-01-23T16:53:27.606Z,53.80
2019-01-23T16:55:58.870Z,53.90
2019-01-23T16:58:36.079Z,53.90
2019-01-23T17:01:06.094Z,54.10
2019-01-23T17:03:36.954Z,54.00
2019-01-23T17:06:06.678Z,54.00
2019-01-23T17:08:36.719Z,54.10
2019-01-23T17:11:07.276Z,54.10
2019-01-23T17:13:36.615Z,54.00
2019-01-23T17:16:05.706Z,54.10
2019-01-23T17:18:38.202Z,54.10
2019-01-23T17:21:07.568Z,54.10
2019-01-23T17:23:36.441Z,54.20
2019-01-23T17:26:05.669Z,54.20
2019-01-23T17:28:34.812Z,54.30
2019-01-23T17:31:04.261Z,54.30
2019-01-23T17:33:35.354Z,54.40
2019-01-23T17:36:05.093Z,54.40
2019-01-23T17:38:36.875Z,54.40
2019-01-23T17:41:06.622Z,54.50
2019-01-23T17:43:36.639Z,54.70
2019-01-23T17:46:08.668Z,54.70
2019-01-23T17:48:41.338Z,54.60
2019-01-23T17:51:10.501Z,54.70
2019-01-23T17:53:39.611Z,54.70
2019-01-23T17:56:08.922Z,54.70
2019-01-23T17:58:41.426Z,54.80
2019-01-23T18:01:11.085Z,54.90
2019-01-23T18:03:41.696Z,54.90
2019-01-23T18:06:11.086Z,54.80
2019-01-23T18:08:58.515Z,54.80
2019-01-23T18:11:30.050Z,54.90
2019-01-23T18:13:59.146Z,54.90
2019-01-23T18:16:30.382Z,54.90
2019-01-23T18:19:01.409Z,54.90
2019-01-23T18:21:30.412Z,54.80
2019-01-23T18:23:59.953Z,54.80
2019-01-23T18:26:29.239Z,54.80
2019-01-23T18:28:58.506Z,54.80
2019-01-23T18:31:33.297Z,54.70
2019-01-23T18:34:38.072Z,54.80
2019-01-23T18:37:44.879Z,54.80
2019-01-23T18:40:43.058Z,54.80
2019-01-23T18:43:47.893Z,54.90
2019-01-23T18:46:46.103Z,54.90
2019-01-23T18:49:34.472Z,54.90
2019-01-23T18:52:11.551Z,54.80
2019-01-23T18:54:40.634Z,54.90
2019-01-23T18:57:16.034Z,54.90
2019-01-23T18:59:45.965Z,55.10
2019-01-23T19:02:15.634Z,55.20
2019-01-23T19:04:47.531Z,55.10
2019-01-23T19:07:22.223Z,55.20
2019-01-23T19:09:54.814Z,55.10
2019-01-23T19:12:23.890Z,55.20
2019-01-23T19:14:53.175Z,55.20
2019-01-23T19:17:27.094Z,55.20
2019-01-23T19:20:02.981Z,55.40
2019-01-23T19:22:32.482Z,55.40
2019-01-23T19:25:04.456Z,55.50
2019-01-23T19:27:35.255Z,55.50
2019-01-23T19:30:09.195Z,55.60
2019-01-23T19:32:38.345Z,55.70
2019-01-23T19:35:08.078Z,55.70
2019-01-23T19:37:37.895Z,55.70
2019-01-23T19:40:09.473Z,55.80
2019-01-23T19:42:38.729Z,55.80
2019-01-23T19:45:16.876Z,55.90
2019-01-23T19:47:47.290Z,56.00
2019-01-23T19:50:24.818Z,56.00
2019-01-23T19:52:54.559Z,56.10
2019-01-23T19:55:23.579Z,56.20
2019-01-23T19:57:52.536Z,56.70
2019-01-23T20:00:23.226Z,56.30
2019-01-23T20:02:53.142Z,56.30
2019-01-23T20:05:30.267Z,56.30
2019-01-23T20:07:59.746Z,56.40
2019-01-23T20:10:43.889Z,56.40
2019-01-23T20:13:14.625Z,56.60
2019-01-23T20:15:43.735Z,56.50
2019-01-23T20:18:13.942Z,56.70
2019-01-23T20:20:44.665Z,56.70
2019-01-23T20:23:13.654Z,57.40
2019-01-23T20:25:43.501Z,56.80
2019-01-23T20:28:13.727Z,56.70
2019-01-23T20:30:44.901Z,56.90
2019-01-23T20:33:14.029Z,57.00
2019-01-23T20:35:43.161Z,56.90
2019-01-23T20:38:12.161Z,56.90
2019-01-23T20:40:43.556Z,57.10
2019-01-23T20:43:13.567Z,57.10
2019-01-23T20:45:42.730Z,57.10
2019-01-23T20:48:12.422Z,57.10
2019-01-23T20:50:41.717Z,57.20
2019-01-23T20:53:12.061Z,57.10
2019-01-23T20:55:41.392Z,57.10
2019-01-23T20:58:11.352Z,57.20
2019-01-23T21:00:48.393Z,57.40
2019-01-23T21:03:20.743Z,57.50
2019-01-23T21:05:52.285Z,57.50
2019-01-23T21:08:21.367Z,57.40
2019-01-23T21:10:51.857Z,57.50
2019-01-23T21:13:22.141Z,57.50
2019-01-23T21:15:51.237Z,57.50
2019-01-23T21:18:20.245Z,57.60
2019-01-23T21:20:51.670Z,57.50
2019-01-23T21:23:21.579Z,57.70
2019-01-23T21:25:51.046Z,57.60
2019-01-23T21:28:29.895Z,57.60
2019-01-23T21:31:03.652Z,57.60
2019-01-23T21:33:32.841Z,57.60
2019-01-23T21:36:03.282Z,57.60
2019-01-23T21:39:16.781Z,57.50
2019-01-23T21:41:45.763Z,57.60
2019-01-23T21:44:17.312Z,57.40
2019-01-23T21:46:45.626Z,57.40
2019-01-23T21:49:16.538Z,57.30
2019-01-23T21:51:45.725Z,57.40
2019-01-23T21:54:35.629Z,57.20
2019-01-23T21:57:08.474Z,57.00
2019-01-23T21:59:41.108Z,57.10
2019-01-23T22:02:13.721Z,56.90
2019-01-23T22:04:45.593Z,56.90
2019-01-23T22:07:15.274Z,56.90
2019-01-23T22:10:03.559Z,56.70
2019-01-23T22:12:34.595Z,56.60
2019-01-23T22:15:11.539Z,56.30
2019-01-23T22:17:44.402Z,56.20
2019-01-23T22:20:20.028Z,56.00
2019-01-23T22:22:51.269Z,55.90
2019-01-23T22:25:26.340Z,55.70
2019-01-23T22:27:58.156Z,55.60
2019-01-23T22:30:44.685Z,55.40
2019-01-23T22:33:17.787Z,55.40
2019-01-23T22:35:48.448Z,55.20
2019-01-23T22:38:21.471Z,55.20
2019-01-23T22:40:53.293Z,54.90
2019-01-23T22:43:29.169Z,54.80
2019-01-23T22:46:07.193Z,54.80
2019-01-23T22:48:39.355Z,54.50
2019-01-23T22:51:10.621Z,54.40
2019-01-23T22:53:43.299Z,54.10
2019-01-23T22:56:19.484Z,53.80
2019-01-23T22:58:51.633Z,53.50
2019-01-23T23:01:27.962Z,53.10
2019-01-23T23:04:03.761Z,53.00
2019-01-23T23:06:46.638Z,52.80
2019-01-23T23:09:24.989Z,52.80
2019-01-23T23:12:00.105Z,52.60
2019-01-23T23:14:36.866Z,52.80
2019-01-23T23:17:24.122Z,52.60
2019-01-23T23:20:14.562Z,52.60
2019-01-23T23:23:21.903Z,52.80
2019-01-23T23:25:57.679Z,52.50
2019-01-23T23:28:47.024Z,52.50
2019-01-23T23:31:21.539Z,52.30
2019-01-23T23:33:51.274Z,52.20
2019-01-23T23:36:22.497Z,52.30
2019-01-23T23:38:53.482Z,52.30
2019-01-23T23:41:24.510Z,52.30
2019-01-23T23:43:54.621Z,52.30
2019-01-23T23:46:23.516Z,52.20
2019-01-23T23:48:52.660Z,52.20
2019-01-23T23:51:23.609Z,52.20
2019-01-23T23:53:52.877Z,52.30
2019-01-23T23:56:21.910Z,52.20
2019-01-23T23:58:51.258Z,52.20
